バンコク/スワンナプーム の空港の天気 - METARとTAF

スワンナプーム国際空港 ( VTBS / BKK ) - タイ サムットプラーカーン県 (バンコク近郊)
飛行場実況気象(Metar)
観測時間05/29 06:30 ICT (05/28 23:30 UTC)
風向・風速西南西 2m/s
視程10km以上
天気現象
少しの雲 雲底高度 610m
気温27℃
湿度79%
気圧1005hPa
METARVTBS 282330Z 24004KT 9999 FEW020 27/23 Q1005 NOSIG
過去の天気等 Google飛行場航空写真 Wunderground天気予報

過去48時間のMETAR

飛行場予報(TAF)
発表時間: 5/29 06:00 ICT (5/28 23:00 UTC)
予報対象時間: 29日7時 ICT ~ 30日13時 ICT
風向・風速南南西 4m/s
視程10km以上
少しの雲 雲底高度 610m
29日15時 ICT ~ 29日19時 ICT に一時的に
風向・風速不定 8m/s
視程3000m
天気現象雷雨
少しの積乱雲 雲底高度 550m
全天の4割程度の雲 雲底高度 910m
全天の8割程度の雲 雲底高度 3050m
TAF VTBS 282300Z 2900/3006 21008KT 9999 FEW020
TEMPO 2908/2912 VRB15KT 3000 TSRA FEW018CB SCT030 BKN100